createdAt,value
2022-09-28T00:00:43.312Z,17.87
2022-09-28T00:03:13.929Z,17.90
2022-09-28T00:05:44.534Z,17.90
2022-09-28T00:08:15.844Z,17.92
2022-09-28T00:10:47.738Z,17.81
2022-09-28T00:13:18.646Z,17.84
2022-09-28T00:15:49.354Z,17.95
2022-09-28T00:18:20.127Z,17.94
2022-09-28T00:20:50.851Z,17.85
2022-09-28T00:23:21.522Z,17.98
2022-09-28T00:25:52.195Z,17.85
2022-09-28T00:28:22.960Z,17.57
2022-09-28T00:30:57.948Z,17.67
2022-09-28T00:33:28.759Z,17.70
2022-09-28T00:36:02.308Z,17.73
2022-09-28T00:38:33.347Z,17.69
2022-09-28T00:41:04.046Z,17.69
2022-09-28T00:43:34.792Z,17.66
2022-09-28T00:46:27.885Z,17.67
2022-09-28T00:49:04.693Z,17.64
2022-09-28T00:51:37.824Z,17.63
2022-09-28T00:54:11.099Z,17.57
2022-09-28T00:56:43.826Z,17.51
2022-09-28T00:59:14.339Z,17.51
2022-09-28T01:01:45.139Z,17.50
2022-09-28T01:04:16.084Z,17.44
2022-09-28T01:06:48.789Z,17.44
2022-09-28T01:09:20.044Z,17.49
2022-09-28T01:11:50.465Z,17.44
2022-09-28T01:14:22.048Z,17.43
2022-09-28T01:17:13.566Z,17.43
2022-09-28T01:20:07.677Z,17.39
2022-09-28T01:23:07.764Z,17.33
2022-09-28T01:25:53.652Z,17.23
2022-09-28T01:28:29.812Z,17.20
2022-09-28T01:31:23.718Z,17.15
2022-09-28T01:34:02.789Z,17.10
2022-09-28T01:36:43.197Z,17.03
2022-09-28T01:39:19.785Z,16.99
2022-09-28T01:41:55.014Z,17.00
2022-09-28T01:44:31.694Z,17.02
2022-09-28T01:47:05.717Z,16.92
2022-09-28T01:50:02.214Z,16.86
2022-09-28T01:52:47.289Z,16.96
2022-09-28T01:55:31.653Z,17.08
2022-09-28T01:58:09.728Z,17.22
2022-09-28T02:00:44.196Z,17.12
2022-09-28T02:03:21.506Z,17.03
2022-09-28T02:06:02.568Z,16.98
2022-09-28T02:08:42.619Z,16.95
2022-09-28T02:11:21.464Z,16.96
2022-09-28T02:14:07.232Z,16.86
2022-09-28T02:16:45.137Z,16.76
2022-09-28T02:19:23.485Z,16.83
2022-09-28T02:22:01.410Z,16.78
2022-09-28T02:24:59.569Z,16.79
2022-09-28T02:27:50.895Z,16.72
2022-09-28T02:30:21.542Z,16.68
2022-09-28T02:32:56.293Z,16.69
2022-09-28T02:35:27.083Z,16.72
2022-09-28T02:37:58.252Z,16.67
2022-09-28T02:40:33.550Z,16.64
2022-09-28T02:43:20.620Z,16.61
2022-09-28T02:46:09.554Z,16.61
2022-09-28T02:49:30.280Z,16.67
2022-09-28T02:52:31.766Z,16.62
2022-09-28T02:55:21.968Z,16.52
2022-09-28T02:58:08.142Z,16.51
2022-09-28T03:01:03.464Z,16.48
2022-09-28T03:03:41.388Z,16.37
2022-09-28T03:06:52.843Z,16.37
2022-09-28T03:09:42.624Z,16.38
2022-09-28T03:12:16.968Z,16.37
2022-09-28T03:14:48.164Z,16.32
2022-09-28T03:17:22.499Z,16.25
2022-09-28T03:19:53.036Z,16.28
2022-09-28T03:22:23.388Z,16.38
2022-09-28T03:24:53.284Z,16.44
2022-09-28T03:27:24.166Z,16.58
2022-09-28T03:29:54.661Z,16.59
2022-09-28T03:32:24.898Z,16.54
2022-09-28T03:34:54.780Z,16.32
2022-09-28T03:37:25.012Z,16.31
2022-09-28T03:39:55.463Z,16.25
2022-09-28T03:42:25.258Z,16.35
2022-09-28T03:44:55.912Z,16.42
2022-09-28T03:47:26.290Z,16.40
2022-09-28T03:49:56.876Z,16.28
2022-09-28T03:52:27.204Z,16.21
2022-09-28T03:54:57.769Z,16.16
2022-09-28T03:57:28.120Z,16.13
2022-09-28T03:59:58.003Z,16.24
2022-09-28T04:02:28.226Z,16.32
2022-09-28T04:04:58.764Z,16.22
2022-09-28T04:07:31.010Z,16.21
2022-09-28T04:10:01.911Z,16.21
2022-09-28T04:12:31.677Z,16.18
2022-09-28T04:15:01.899Z,16.32
2022-09-28T04:17:37.806Z,16.45
2022-09-28T04:20:18.118Z,16.37
2022-09-28T04:23:02.474Z,16.38
2022-09-28T04:25:32.915Z,16.34
2022-09-28T04:28:21.182Z,16.20
2022-09-28T04:30:51.790Z,16.03
2022-09-28T04:33:22.511Z,16.04
2022-09-28T04:35:53.033Z,16.01
2022-09-28T04:38:35.796Z,16.03
2022-09-28T04:41:13.603Z,15.96
2022-09-28T04:43:44.123Z,16.04
2022-09-28T04:46:14.867Z,15.93
2022-09-28T04:48:52.213Z,15.89
2022-09-28T04:51:35.460Z,16.01
2022-09-28T04:54:05.911Z,16.00
2022-09-28T04:56:35.788Z,15.96
2022-09-28T04:59:07.138Z,15.89
2022-09-28T05:01:39.096Z,15.91
2022-09-28T05:04:12.444Z,15.90
2022-09-28T05:06:51.205Z,15.94
2022-09-28T05:09:21.066Z,15.96
2022-09-28T05:11:54.324Z,16.03
2022-09-28T05:14:27.664Z,15.96
2022-09-28T05:16:58.326Z,15.97
2022-09-28T05:19:29.052Z,16.08
2022-09-28T05:22:07.248Z,16.13
2022-09-28T05:24:47.739Z,16.25
2022-09-28T05:27:18.318Z,16.31
2022-09-28T05:29:57.400Z,16.24
2022-09-28T05:32:27.829Z,16.22
2022-09-28T05:35:18.537Z,16.34
2022-09-28T05:37:50.708Z,16.21
2022-09-28T05:40:21.328Z,15.99
2022-09-28T05:42:52.664Z,15.99
2022-09-28T05:45:23.704Z,15.94
2022-09-28T05:47:54.191Z,15.91
2022-09-28T05:50:25.635Z,15.94
2022-09-28T05:53:11.214Z,15.91
2022-09-28T05:55:41.594Z,15.97
2022-09-28T05:58:11.512Z,15.96
2022-09-28T06:00:41.531Z,15.93
2022-09-28T06:03:16.392Z,15.90
2022-09-28T06:05:48.727Z,15.89
2022-09-28T06:08:19.255Z,15.85
2022-09-28T06:11:02.474Z,15.80
2022-09-28T06:13:33.416Z,15.76
2022-09-28T06:16:06.116Z,15.82
2022-09-28T06:18:36.675Z,15.82
2022-09-28T06:21:44.822Z,15.74
2022-09-28T06:24:15.426Z,15.79
2022-09-28T06:26:45.853Z,15.74
2022-09-28T06:29:19.946Z,15.82
2022-09-28T06:31:50.562Z,15.77
2022-09-28T06:34:22.726Z,15.74
2022-09-28T06:36:53.119Z,15.73
2022-09-28T06:39:23.558Z,15.74
2022-09-28T06:41:53.771Z,15.74
2022-09-28T06:44:25.601Z,15.77
2022-09-28T06:47:25.017Z,15.93
2022-09-28T06:50:13.541Z,15.79
2022-09-28T06:53:12.245Z,15.76
2022-09-28T06:56:05.094Z,15.82
2022-09-28T06:58:35.360Z,15.86
2022-09-28T07:01:07.055Z,15.80
2022-09-28T07:03:45.652Z,15.74
2022-09-28T07:06:49.507Z,15.76
2022-09-28T07:09:42.236Z,15.73
2022-09-28T07:12:23.104Z,15.76
2022-09-28T07:14:58.508Z,15.76
2022-09-28T07:17:31.456Z,15.76
2022-09-28T07:20:17.319Z,15.70
2022-09-28T07:23:07.090Z,15.74
2022-09-28T07:26:08.778Z,15.70
2022-09-28T07:28:57.765Z,15.65
2022-09-28T07:31:39.817Z,15.60
2022-09-28T07:34:19.845Z,15.52
2022-09-28T07:37:20.241Z,15.58
2022-09-28T07:40:10.402Z,15.55
2022-09-28T07:42:41.766Z,15.53
2022-09-28T07:45:13.650Z,15.52
2022-09-28T07:47:44.891Z,15.50
2022-09-28T07:50:49.227Z,15.45
2022-09-28T07:53:31.065Z,15.38
2022-09-28T07:56:15.765Z,15.32
2022-09-28T07:58:58.694Z,15.31
2022-09-28T08:01:50.905Z,15.31
2022-09-28T08:04:21.839Z,15.21
2022-09-28T08:06:52.260Z,15.15
2022-09-28T08:09:22.135Z,15.11
2022-09-28T08:12:10.860Z,15.09
2022-09-28T08:15:04.098Z,15.07
2022-09-28T08:18:09.646Z,15.04
2022-09-28T08:20:58.951Z,15.04
2022-09-28T08:23:30.093Z,15.07
2022-09-28T08:26:00.675Z,15.04
2022-09-28T08:28:31.224Z,15.08
2022-09-28T08:31:08.708Z,14.98
2022-09-28T08:34:01.643Z,14.92
2022-09-28T08:36:58.090Z,14.97
2022-09-28T08:39:46.848Z,14.98
2022-09-28T08:42:46.333Z,15.04
2022-09-28T08:45:53.337Z,15.11
2022-09-28T08:49:30.935Z,15.07
2022-09-28T08:52:29.846Z,15.08
2022-09-28T08:55:33.548Z,15.05
2022-09-28T08:58:13.038Z,15.15
2022-09-28T09:00:55.616Z,15.17
2022-09-28T09:03:35.066Z,15.14
2022-09-28T09:06:53.354Z,15.11
2022-09-28T09:09:35.642Z,15.09
2022-09-28T09:12:16.237Z,14.98
2022-09-28T09:14:57.987Z,14.99
2022-09-28T09:17:44.222Z,15.01
2022-09-28T09:21:09.379Z,15.02
2022-09-28T09:23:54.781Z,14.98
2022-09-28T09:26:37.007Z,15.04
2022-09-28T09:29:19.634Z,15.09
2022-09-28T09:32:22.505Z,15.14
2022-09-28T09:35:15.043Z,15.18
2022-09-28T09:38:37.684Z,15.22
2022-09-28T09:41:46.636Z,15.29
2022-09-28T09:45:15.923Z,15.25
2022-09-28T09:48:16.410Z,15.28
2022-09-28T09:50:55.113Z,15.31
2022-09-28T09:53:40.367Z,15.36
2022-09-28T09:56:21.546Z,15.46
2022-09-28T09:59:25.540Z,15.48
2022-09-28T10:02:31.008Z,15.49
2022-09-28T10:05:29.011Z,15.59
2022-09-28T10:08:11.705Z,15.62
2022-09-28T10:10:54.653Z,15.70
2022-09-28T10:13:26.985Z,15.77
2022-09-28T10:15:58.738Z,15.80
2022-09-28T10:18:38.038Z,15.86
2022-09-28T10:21:48.541Z,15.93
2022-09-28T10:24:32.715Z,16.01
2022-09-28T10:27:19.836Z,16.06
2022-09-28T10:30:14.219Z,16.07
2022-09-28T10:32:50.231Z,16.11
2022-09-28T10:35:20.568Z,16.13
2022-09-28T10:38:05.676Z,16.13
2022-09-28T10:40:57.341Z,16.10
2022-09-28T10:44:09.940Z,16.25
2022-09-28T10:47:04.926Z,16.38
2022-09-28T10:49:47.261Z,16.34
2022-09-28T10:52:39.117Z,16.37
2022-09-28T10:55:29.645Z,16.51
2022-09-28T10:58:19.258Z,16.52
2022-09-28T11:00:51.003Z,16.61
2022-09-28T11:03:29.372Z,16.61
2022-09-28T11:06:09.754Z,16.65
2022-09-28T11:08:45.239Z,16.71
2022-09-28T11:11:21.321Z,16.69
2022-09-28T11:14:02.985Z,16.68
2022-09-28T11:16:38.669Z,16.69
2022-09-28T11:19:31.093Z,16.64
2022-09-28T11:22:03.179Z,16.73
2022-09-28T11:24:38.633Z,16.90
2022-09-28T11:27:20.654Z,17.16
2022-09-28T11:30:00.963Z,17.36
2022-09-28T11:32:52.473Z,17.39
2022-09-28T11:35:51.427Z,17.44
2022-09-28T11:38:54.957Z,17.64
2022-09-28T11:42:16.263Z,17.75
2022-09-28T11:44:50.872Z,17.59
2022-09-28T11:47:32.204Z,17.60
2022-09-28T11:50:24.389Z,17.91
2022-09-28T11:53:18.678Z,18.16
2022-09-28T11:55:57.517Z,18.35
2022-09-28T11:59:05.324Z,18.38
2022-09-28T12:02:06.849Z,18.57
2022-09-28T12:05:19.900Z,18.49
2022-09-28T12:07:58.664Z,18.53
2022-09-28T12:11:05.217Z,18.59
2022-09-28T12:13:58.602Z,18.62
2022-09-28T12:17:04.862Z,18.87
2022-09-28T12:19:39.448Z,18.90
2022-09-28T12:22:31.010Z,18.82
2022-09-28T12:25:03.366Z,18.90
2022-09-28T12:27:52.341Z,18.92
2022-09-28T12:30:23.498Z,18.86
2022-09-28T12:33:08.797Z,18.62
2022-09-28T12:35:45.460Z,18.56
2022-09-28T12:38:30.333Z,18.62
2022-09-28T12:41:36.387Z,18.87
2022-09-28T12:44:18.553Z,19.18
2022-09-28T12:47:26.765Z,19.31
2022-09-28T12:53:32.332Z,19.51
2022-09-28T12:56:05.927Z,19.82
2022-09-28T12:58:45.366Z,19.69
2022-09-28T13:01:34.768Z,19.81
2022-09-28T13:04:25.883Z,20.32
2022-09-28T13:07:30.221Z,20.05
2022-09-28T13:10:06.799Z,20.22
2022-09-28T13:12:54.882Z,20.00
2022-09-28T13:15:40.329Z,19.65
2022-09-28T13:18:16.945Z,19.71
2022-09-28T13:20:46.716Z,20.02
2022-09-28T13:23:35.802Z,19.90
2022-09-28T13:26:21.921Z,20.15
2022-09-28T13:28:56.204Z,20.23
2022-09-28T13:31:33.978Z,20.47
2022-09-28T13:34:08.548Z,20.56
2022-09-28T13:36:40.479Z,20.44
2022-09-28T13:39:39.151Z,20.10
2022-09-28T13:42:11.587Z,20.43
2022-09-28T13:45:02.028Z,20.44
2022-09-28T13:48:04.437Z,20.29
2022-09-28T13:50:53.249Z,20.17
2022-09-28T13:53:45.103Z,20.15
2022-09-28T13:56:59.846Z,20.43
2022-09-28T13:59:32.449Z,21.09
2022-09-28T14:02:12.298Z,22.24
2022-09-28T14:04:59.668Z,21.82
2022-09-28T14:07:36.665Z,21.65
2022-09-28T14:10:10.065Z,21.97
2022-09-28T14:12:40.435Z,21.52
2022-09-28T14:15:28.629Z,21.86
2022-09-28T14:18:32.961Z,21.60
2022-09-28T14:21:41.367Z,22.13
2022-09-28T14:24:23.810Z,22.37
2022-09-28T14:27:12.561Z,22.16
2022-09-28T14:29:43.431Z,21.98
2022-09-28T14:32:13.772Z,22.01
2022-09-28T14:34:48.355Z,21.89
2022-09-28T14:37:42.146Z,21.77
2022-09-28T14:40:43.759Z,22.04
2022-09-28T14:43:34.485Z,22.51
2022-09-28T14:46:18.412Z,22.37
2022-09-28T14:49:05.008Z,22.69
2022-09-28T14:51:36.644Z,22.81
2022-09-28T14:54:13.168Z,23.29
2022-09-28T14:56:58.057Z,24.39
2022-09-28T14:59:31.913Z,24.14
2022-09-28T15:02:26.980Z,22.73
2022-09-28T15:05:24.225Z,22.34
2022-09-28T15:07:56.770Z,21.97
2022-09-28T15:10:43.353Z,21.70
2022-09-28T15:13:31.415Z,21.63
2022-09-28T15:16:07.454Z,21.57
2022-09-28T15:18:45.332Z,21.80
2022-09-28T15:21:16.376Z,22.01
2022-09-28T15:23:48.321Z,22.28
2022-09-28T15:26:33.530Z,22.38
2022-09-28T15:29:06.696Z,22.33
2022-09-28T15:31:38.016Z,22.27
2022-09-28T15:34:52.498Z,21.97
2022-09-28T15:37:38.368Z,21.55
2022-09-28T15:40:17.969Z,21.45
2022-09-28T15:42:48.955Z,21.34
2022-09-28T15:45:27.801Z,21.34
2022-09-28T15:48:35.039Z,21.31
2022-09-28T15:51:15.705Z,21.28
2022-09-28T15:53:51.182Z,21.38
2022-09-28T15:56:21.938Z,21.29
2022-09-28T15:59:36.872Z,21.25
2022-09-28T16:02:23.870Z,21.21
2022-09-28T16:04:58.138Z,21.12
2022-09-28T16:07:41.640Z,21.19
2022-09-28T16:10:15.361Z,21.19
2022-09-28T16:13:00.471Z,21.83
2022-09-28T16:15:36.352Z,22.11
2022-09-28T16:18:08.577Z,22.21
2022-09-28T16:20:41.452Z,21.92
2022-09-28T16:23:25.492Z,21.75
2022-09-28T16:26:01.507Z,21.45
2022-09-28T16:28:35.193Z,21.46
2022-09-28T16:31:10.656Z,21.29
2022-09-28T16:34:11.588Z,21.22
2022-09-28T16:36:46.560Z,21.28
2022-09-28T16:39:18.872Z,21.35
2022-09-28T16:41:57.001Z,21.49
2022-09-28T16:44:36.319Z,21.90
2022-09-28T16:47:08.092Z,22.07
2022-09-28T16:49:41.551Z,22.21
2022-09-28T16:52:35.565Z,22.01
2022-09-28T16:58:09.490Z,22.25
2022-09-28T17:00:39.944Z,22.14
2022-09-28T17:03:19.587Z,22.06
2022-09-28T17:05:50.430Z,22.04
2022-09-28T17:08:23.495Z,22.25
2022-09-28T17:11:18.148Z,22.18
2022-09-28T17:13:49.489Z,22.00
2022-09-28T17:16:37.273Z,22.17
2022-09-28T17:19:25.344Z,22.25
2022-09-28T17:21:55.862Z,22.18
2022-09-28T17:24:26.266Z,22.21
2022-09-28T17:26:57.320Z,22.28
2022-09-28T17:29:29.023Z,22.35
2022-09-28T17:32:00.224Z,22.47
2022-09-28T17:34:30.772Z,22.47
2022-09-28T17:37:01.372Z,22.67
2022-09-28T17:39:32.985Z,22.71
2022-09-28T17:42:04.903Z,22.91
2022-09-28T17:44:51.124Z,23.05
2022-09-28T17:47:22.788Z,23.08
2022-09-28T17:49:55.260Z,23.10
2022-09-28T17:52:26.877Z,23.24
2022-09-28T17:54:59.106Z,23.17
2022-09-28T17:57:32.699Z,23.20
2022-09-28T18:00:03.531Z,23.36
2022-09-28T18:02:37.190Z,23.31
2022-09-28T18:05:08.271Z,23.22
2022-09-28T18:07:42.239Z,22.79
2022-09-28T18:10:18.102Z,22.96
2022-09-28T18:12:48.853Z,23.15
2022-09-28T18:15:20.763Z,23.00
2022-09-28T18:17:51.547Z,23.09
2022-09-28T18:20:21.972Z,23.31
2022-09-28T18:22:52.360Z,23.37
2022-09-28T18:25:22.854Z,22.99
2022-09-28T18:27:58.614Z,22.85
2022-09-28T18:30:29.975Z,22.84
2022-09-28T18:33:00.537Z,22.92
2022-09-28T18:35:31.008Z,22.72
2022-09-28T18:38:01.589Z,22.52
2022-09-28T18:40:32.070Z,22.49
2022-09-28T18:43:02.729Z,22.33
2022-09-28T18:45:33.036Z,22.33
2022-09-28T18:48:03.836Z,22.04
2022-09-28T18:50:34.337Z,22.10
2022-09-28T18:53:14.362Z,22.00
2022-09-28T18:55:45.984Z,22.06
2022-09-28T18:58:16.436Z,22.06
2022-09-28T19:00:46.756Z,21.87
2022-09-28T19:03:17.270Z,22.04
2022-09-28T19:05:48.006Z,22.03
2022-09-28T19:08:18.411Z,22.10
2022-09-28T19:10:49.879Z,22.01
2022-09-28T19:13:20.279Z,22.31
2022-09-28T19:15:50.741Z,22.43
2022-09-28T19:18:22.492Z,22.40
2022-09-28T19:20:52.871Z,21.93
2022-09-28T19:23:25.620Z,21.62
2022-09-28T19:25:56.008Z,21.32
2022-09-28T19:28:26.407Z,21.08
2022-09-28T19:31:05.954Z,20.98
2022-09-28T19:33:36.863Z,20.77
2022-09-28T19:36:09.917Z,20.67
2022-09-28T19:38:41.529Z,20.71
2022-09-28T19:41:43.149Z,20.64
2022-09-28T19:44:25.924Z,20.56
2022-09-28T19:46:59.311Z,20.87
2022-09-28T19:49:34.274Z,20.92
2022-09-28T19:52:17.729Z,20.39
2022-09-28T19:55:00.497Z,20.17
2022-09-28T19:57:34.609Z,19.97
2022-09-28T20:00:05.733Z,19.95
2022-09-28T20:02:36.716Z,19.89
2022-09-28T20:05:07.461Z,19.87
2022-09-28T20:07:38.019Z,19.86
2022-09-28T20:10:08.844Z,19.79
2022-09-28T20:12:39.527Z,19.71
2022-09-28T20:15:11.871Z,19.64
2022-09-28T20:17:43.312Z,19.71
2022-09-28T20:20:14.374Z,19.54
2022-09-28T20:22:45.280Z,19.45
2022-09-28T20:25:15.839Z,19.34
2022-09-28T20:27:46.417Z,19.31
2022-09-28T20:30:17.073Z,19.27
2022-09-28T20:32:49.512Z,19.15
2022-09-28T20:35:32.144Z,19.15
2022-09-28T20:38:09.245Z,19.07
2022-09-28T20:40:41.407Z,19.04
2022-09-28T20:43:11.768Z,19.03
2022-09-28T20:45:41.692Z,19.04
2022-09-28T20:48:11.873Z,18.96
2022-09-28T20:50:43.905Z,18.90
2022-09-28T20:53:14.329Z,18.84
2022-09-28T20:55:45.574Z,18.72
2022-09-28T20:58:16.023Z,18.57
2022-09-28T21:00:47.077Z,18.43
2022-09-28T21:03:17.442Z,18.41
2022-09-28T21:05:48.002Z,18.35
2022-09-28T21:08:18.781Z,18.36
2022-09-28T21:10:49.353Z,18.28
2022-09-28T21:13:20.002Z,18.21
2022-09-28T21:15:51.671Z,18.16
2022-09-28T21:18:25.088Z,18.16
2022-09-28T21:20:55.955Z,18.01
2022-09-28T21:23:26.419Z,17.85
2022-09-28T21:26:25.775Z,17.78
2022-09-28T21:29:02.513Z,17.74
2022-09-28T21:31:38.540Z,17.70
2022-09-28T21:34:13.441Z,17.67
2022-09-28T21:36:44.774Z,17.64
2022-09-28T21:39:16.810Z,17.57
2022-09-28T21:41:47.362Z,17.54
2022-09-28T21:44:17.970Z,17.53
2022-09-28T21:46:48.541Z,17.50
2022-09-28T21:49:19.097Z,17.49
2022-09-28T21:51:49.557Z,17.46
2022-09-28T21:54:19.631Z,17.43
2022-09-28T21:56:49.854Z,17.39
2022-09-28T21:59:19.728Z,17.40
2022-09-28T22:01:49.974Z,17.34
2022-09-28T22:04:20.592Z,17.33
2022-09-28T22:06:51.257Z,17.29
2022-09-28T22:09:21.090Z,17.23
2022-09-28T22:11:52.663Z,17.19
2022-09-28T22:14:23.541Z,17.13
2022-09-28T22:16:53.771Z,17.10
2022-09-28T22:19:23.957Z,17.03
2022-09-28T22:21:54.454Z,17.05
2022-09-28T22:24:24.579Z,17.03
2022-09-28T22:26:54.418Z,17.06
2022-09-28T22:29:25.246Z,17.02
2022-09-28T22:32:03.414Z,17.00
2022-09-28T22:34:34.379Z,17.00
2022-09-28T22:37:05.556Z,16.98
2022-09-28T22:39:37.868Z,16.96
2022-09-28T22:42:09.808Z,16.92
2022-09-28T22:44:41.765Z,16.89
2022-09-28T22:47:13.002Z,16.85
2022-09-28T22:49:44.947Z,16.89
2022-09-28T22:52:15.673Z,16.82
2022-09-28T22:54:46.879Z,16.69
2022-09-28T22:57:17.442Z,16.69
2022-09-28T22:59:48.173Z,16.61
2022-09-28T23:02:19.080Z,16.59
2022-09-28T23:04:49.777Z,16.54
2022-09-28T23:07:21.199Z,16.52
2022-09-28T23:09:52.064Z,16.51
2022-09-28T23:12:22.891Z,16.48
2022-09-28T23:14:54.229Z,16.47
2022-09-28T23:17:25.269Z,16.44
2022-09-28T23:19:56.089Z,16.41
2022-09-28T23:22:27.328Z,16.34
2022-09-28T23:24:58.369Z,16.27
2022-09-28T23:27:29.220Z,16.24
2022-09-28T23:30:22.842Z,16.18
2022-09-28T23:32:56.714Z,16.17
2022-09-28T23:35:27.382Z,16.17
2022-09-28T23:37:58.196Z,16.13
2022-09-28T23:40:31.248Z,16.13
2022-09-28T23:43:03.247Z,16.06
2022-09-28T23:45:33.765Z,16.04
2022-09-28T23:48:05.099Z,16.01
2022-09-28T23:50:35.695Z,15.99
2022-09-28T23:53:07.025Z,15.94
2022-09-28T23:55:37.652Z,15.96
2022-09-28T23:58:08.608Z,15.94
